Relevés horaires Bierset (Belgique)


Relevés horaires à Bierset - Mercredi 06 Sept. 2023
Heure UTC1 Température [°C] Vent [km/h] Hum. [%] Pres.4 [hPa] Visi. [Km] Nébu. [octa] Préc.5 [mm] Cond.
2m. Res. Ros. Dir.2 Vit. Moy. Raf.3
23:00 21.0 21.0 12.4 SE 5.6 7.4 14.8 58 1019.5(0.2/3h) 30 2/8 -- --
22:00 21.5 21.5 12.9 SE 5.6 7.4 9.3 58 1019.7(0.8/3h) 30 2/8 -- --
21:00 22.6 22.6 13.1 ESE 5.6 5.6 18.5 55 1019.4(1.1/3h) 30 2/8 -- --
20:00 23.3 23.3 13.5 SE 5.6 5.6 7.4 54 1019.1(0.8/3h) 30 2/8 -- --
19:00 23.6 23.6 13.5 ENE 3.7 5.6 13.0 53 1018.7(0.3/3h) 30 2/8 -- --
18:00 24.2 24.2 14.4 N 5.6 7.4 13.0 54 1018.2(-0.2/3h) 30 2/8 0/12h
--
17:00 26.9 26.9 14.6 NNE 7.4 7.4 11.1 47 1018(-0.3/3h) 30 2/8 -- --
16:00 28.0 28.0 14.7 N 7.4 7.4 11.1 44 1018.1(-0.6/3h) 30 2/8 -- --
15:00 28.3 28.3 15.5 NNE 7.4 7.4 11.1 46 1018(-1.0/3h) 30 1/8 -- --
14:00 28.8 28.8 15.0 NE 5.6 7.4 11.1 43 1018.2(-1.2/3h) 30 1/8 -- --
13:00 28.7 28.7 15.4 N 5.6 5.6 11.1 44 1018.6(-1.0/3h) 30 1/8 -- --
12:00 28.5 28.5 12.9 E 5.6 5.6 14.8 38 1019.1(-0.7/3h) 30 1/8 0/6h
--
11:00 27.0 27.0 14.4 N 5.6 5.6 7.4 46 1019.5(0.2/3h) 30 1/8 -- --
10:00 26.9 26.9 14.8 SO 1.9 3.7 5.6 47 1019.8(0.1/3h) 30 1/8 -- --
09:00 25.2 25.2 13.9 ESE 3.7 5.6 14.8 50 1020(0.5/3h) 30 1/8 -- --
08:00 22.4 22.4 14.3 SE 3.7 5.6 14.8 60 1020(0.7/3h) 30 1/8 -- --
07:00 19.9 19.9 13.5 NNO 5.6 5.6 14.8 67 1020.1(0.9/3h) 30 1/8 -- --
06:00 17.9 17.9 12.6 E 1.9 9.3 14.8 71 1020.1(0.6/3h) 30 0/8 0/12h
--
05:00 17.3 17.3 12.8 ESE 1.9 3.7 7.4 75 1019.7(0.2/3h) 30 0/8 -- --
04:00 18.8 18.8 12.4 NNO 0.0 7.4 14.8 66 1019.3(-0.1/3h) 30 1/8 -- --
03:00 20.1 20.1 12.5 S 7.4 9.3 14.8 62 1019.2(0.0/3h) 30 1/8 -- --
02:00 20.4 20.4 12.6 S 9.3 9.3 14.8 61 1019.2(0.0/3h) 30 1/8 -- --
01:00 20.6 20.6 12.6 S 7.4 7.4 13.0 60 1019.3(0.4/3h) 30 1/8 -- --
00:00 21.2 21.2 12.6 SSE 7.4 7.4 20.4 58 1019.1(0.5/3h) 30 1/8 0/6h
0/24h
--

1 Coordinated Universal Time. Actuellement il est 11:00 locale et 09:00 UTC.

2 Le vent souffle depuis la direction indiquée vers la direction oposée.

3 Les rafales max. sont disponible 40 min après l'heure du relevé.

4 Pour les stations d'altitude (plus de 600m) le géopotentiel du niveau le plus proche de la pression obligatoire est indiqué.

5 Les stations disposant d'un diffuseur peuvent indiquer "trace". Cela signifie que des précipitations ont touchés le sol mais que la quantité est inférieure à 0.1 mm.

Récapitulatif de la journée
Température [°C] Vent [km/h] Ensoleillement4 [h] Precipitations totale5 [mm] Pression [Hpa]
Min1 Max.2 Moy.3 Max. Min Max.
16.5 29.1 6.7 20.4 0 h 0 min 0 1018.0 1020.1

1 Température minimale relevée entre 18:00 UTC la veille et 18:00 UTC le jour donné.

2 Température maximale relevée entre 06:00 UTC le jour donné et 06:00 UTC le lendemain.

3 Vent moyen de la journée basé sur les relevés horaires.

4 Ensoleillement en heures relevé entre 06:00 UTC la veille et 06:00 UTC le jour donné.

5 Précipitations totales tombées entre 06:00 UTC la jour donné et 06:00 UTC le lendemain.

Graphiques horaires